Time;durP1;ratioP1;P1;durP2;ratioP2;P2;SDS_P1;SDS_P2;PMS_P1;PMS_P2;Temp;Humidity;BMP_temperature;BMP_pressure;BME280_temperature;BME280_humidity;BME280_pressure;Samples;Min_cycle;Max_cycle;Signal;HPM_P1;HPM_P2
2022/02/02 00:01:48;;;;;;;38.00;6.03;;;6.00;99.90;;;;;;5070051;28;20242;-61
2022/02/02 00:04:21;;;;;;;35.60;6.50;;;6.00;99.90;;;;;;5070684;28;20312;-61
2022/02/02 00:07:00;;;;;;;39.90;6.23;;;6.00;99.90;;;;;;5070020;28;20908;-61
2022/02/02 00:09:29;;;;;;;30.97;6.67;;;6.00;99.90;;;;;;5069534;28;20556;-61
2022/02/02 00:12:14;;;;;;;29.40;5.37;;;6.00;99.90;;;;;;5070409;28;20592;-61
2022/02/02 00:14:56;;;;;;;33.27;5.27;;;6.00;99.90;;;;;;5070138;28;20576;-61
2022/02/02 00:17:42;;;;;;;38.20;7.03;;;6.00;99.90;;;;;;5070520;28;20257;-61
2022/02/02 00:20:19;;;;;;;33.47;5.33;;;6.10;99.90;;;;;;5070320;28;20800;-61
2022/02/02 00:22:49;;;;;;;32.67;6.20;;;6.10;99.90;;;;;;5070005;28;20322;-60
2022/02/02 00:25:21;;;;;;;36.27;6.43;;;6.10;99.90;;;;;;5070392;28;21076;-61
2022/02/02 00:27:55;;;;;;;33.50;6.30;;;6.10;99.90;;;;;;5069857;28;20326;-61
2022/02/02 00:30:28;;;;;;;24.90;5.80;;;6.10;99.90;;;;;;5070409;28;20490;-61
2022/02/02 00:33:14;;;;;;;30.73;6.17;;;6.10;99.90;;;;;;5070182;28;20238;-60
2022/02/02 00:35:53;;;;;;;27.40;5.57;;;6.10;99.90;;;;;;5069891;28;20237;-61
2022/02/02 00:38:21;;;;;;;30.13;5.67;;;6.20;99.90;;;;;;5065389;28;20552;-61
2022/02/02 00:40:49;;;;;;;37.77;6.20;;;6.20;99.90;;;;;;5070223;28;20496;-61
2022/02/02 00:43:19;;;;;;;35.43;5.40;;;6.20;99.90;;;;;;5070150;28;20469;-61
2022/02/02 00:46:07;;;;;;;38.30;6.40;;;6.30;99.90;;;;;;5070420;28;20235;-61
2022/02/02 00:48:36;;;;;;;35.03;6.93;;;6.30;99.90;;;;;;5069668;28;20635;-60
2022/02/02 00:51:04;;;;;;;37.23;5.77;;;6.20;99.90;;;;;;5070432;28;20262;-61
2022/02/02 00:53:32;;;;;;;32.03;5.60;;;6.20;99.90;;;;;;5073849;28;20231;-61
2022/02/02 00:56:00;;;;;;;38.43;6.40;;;6.20;99.90;;;;;;5074149;28;20234;-61
2022/02/02 00:58:30;;;;;;;40.07;6.03;;;6.20;99.90;;;;;;5073612;28;20961;-60
2022/02/02 01:00:58;;;;;;;26.30;5.17;;;6.20;99.90;;;;;;5073726;28;20247;-61
2022/02/02 01:03:28;;;;;;;38.67;6.37;;;6.20;99.90;;;;;;5073557;28;20342;-60
2022/02/02 01:05:56;;;;;;;33.17;5.63;;;6.20;99.90;;;;;;5073542;28;20526;-61
2022/02/02 01:08:44;;;;;;;36.67;6.20;;;6.30;99.90;;;;;;5068353;28;20257;-61
2022/02/02 01:11:32;;;;;;;25.90;5.33;;;6.20;99.90;;;;;;5073514;28;20598;-61
2022/02/02 01:19:40;;;;;;;26.20;4.70;;;6.00;99.90;;;;;;5071815;28;20231;-61
2022/02/02 01:22:18;;;;;;;28.30;5.70;;;6.00;99.90;;;;;;5072911;28;20587;-61
2022/02/02 01:27:50;;;;;;;29.83;4.73;;;5.90;99.90;;;;;;5053442;28;20239;-60
2022/02/02 01:30:22;;;;;;;16.43;4.40;;;5.90;99.90;;;;;;5053334;28;20573;-61
2022/02/02 01:32:51;;;;;;;19.07;3.53;;;5.90;99.90;;;;;;5061855;28;20688;-61
2022/02/02 01:35:19;;;;;;;27.30;4.77;;;5.90;99.90;;;;;;5067282;28;20230;-61
2022/02/02 01:37:49;;;;;;;27.33;4.43;;;5.90;99.90;;;;;;5068651;28;20226;-61
2022/02/02 01:40:24;;;;;;;22.83;4.47;;;5.90;99.90;;;;;;5073231;28;20265;-61
2022/02/02 01:42:57;;;;;;;24.00;4.37;;;5.90;99.90;;;;;;5072972;28;20229;-61
2022/02/02 01:45:33;;;;;;;17.93;3.37;;;5.90;99.90;;;;;;5073131;28;21093;-61
2022/02/02 01:48:12;;;;;;;21.83;3.47;;;5.80;99.90;;;;;;5065230;28;20325;-61
2022/02/02 01:50:51;;;;;;;17.63;3.30;;;5.80;99.90;;;;;;5052554;28;20492;-60
2022/02/02 01:53:29;;;;;;;19.00;3.37;;;5.80;99.90;;;;;;5061962;28;20230;-60
2022/02/02 01:55:58;;;;;;;19.30;3.20;;;5.70;99.90;;;;;;5072943;28;20266;-61
2022/02/02 01:58:44;;;;;;;18.93;3.27;;;5.70;99.90;;;;;;5072541;28;20473;-61
2022/02/02 02:01:15;;;;;;;19.87;2.73;;;5.70;99.90;;;;;;5071456;28;20233;-60
2022/02/02 02:03:43;;;;;;;20.93;3.20;;;5.70;99.90;;;;;;5062784;28;20245;-61
2022/02/02 02:06:11;;;;;;;17.27;3.77;;;5.80;99.90;;;;;;5052435;28;20315;-61
2022/02/02 02:08:41;;;;;;;14.87;2.87;;;5.80;99.90;;;;;;5059040;28;20549;-61
2022/02/02 02:11:15;;;;;;;18.00;3.60;;;5.80;99.90;;;;;;5072677;28;20239;-61
2022/02/02 02:14:11;;;;;;;17.27;3.47;;;5.80;99.90;;;;;;5072219;28;20649;-61
2022/02/02 02:16:40;;;;;;;18.50;3.50;;;5.80;99.90;;;;;;5072295;28;20317;-61
2022/02/02 02:19:09;;;;;;;21.33;4.13;;;5.80;99.90;;;;;;5072290;28;20239;-61
2022/02/02 02:21:37;;;;;;;26.10;4.50;;;5.80;99.90;;;;;;5063013;28;20293;-61
2022/02/02 02:24:07;;;;;;;20.23;3.43;;;5.80;99.90;;;;;;5056099;28;20471;-61
2022/02/02 02:26:39;;;;;;;29.13;4.27;;;5.80;99.90;;;;;;5051857;28;20350;-61
2022/02/02 02:29:24;;;;;;;24.53;4.73;;;5.80;99.90;;;;;;5060008;28;20738;-60
2022/02/02 02:32:09;;;;;;;20.33;4.43;;;5.80;99.90;;;;;;5052546;28;20591;-61
2022/02/02 02:34:55;;;;;;;27.93;5.10;;;5.80;99.90;;;;;;5071988;28;20538;-61
2022/02/02 02:37:44;;;;;;;26.17;4.33;;;5.80;99.90;;;;;;5071944;28;20603;-61
2022/02/02 02:40:24;;;;;;;27.70;5.27;;;5.80;99.90;;;;;;5072168;28;20237;-61
2022/02/02 02:57:09;;;;;;;31.57;4.97;;;5.70;99.90;;;;;;4989894;28;20756;-61
2022/02/02 02:59:44;;;;;;;29.27;5.30;;;5.70;99.90;;;;;;4990184;28;20249;-61
2022/02/02 03:14:33;;;;;;;27.70;5.50;;;5.80;99.90;;;;;;5063188;28;20269;-61
2022/02/02 03:30:42;;;;;;;34.57;5.40;;;5.80;99.90;;;;;;5047383;28;20293;-61
2022/02/02 03:55:35;;;;;;;28.47;4.90;;;5.60;99.90;;;;;;5027080;28;20562;-60
2022/02/02 03:58:18;;;;;;;26.90;4.63;;;5.60;99.90;;;;;;5037595;28;20727;-61
2022/02/02 04:01:13;;;;;;;31.60;4.77;;;5.60;99.90;;;;;;5046910;28;20516;-61
2022/02/02 04:03:58;;;;;;;28.77;4.83;;;5.60;99.90;;;;;;5045992;28;20784;-61
2022/02/02 04:06:27;;;;;;;25.30;4.93;;;5.60;99.90;;;;;;5046626;28;20407;-60
2022/02/02 04:08:55;;;;;;;30.73;5.83;;;5.60;99.90;;;;;;5030726;28;20593;-61
2022/02/02 04:11:32;;;;;;;27.03;4.93;;;5.60;99.90;;;;;;5026855;28;20467;-62
2022/02/02 04:51:18;;;;;;;25.73;4.00;;;5.60;99.90;;;;;;5032854;28;20482;-61
2022/02/02 04:56:15;;;;;;;22.13;4.30;;;5.70;99.90;;;;;;5050988;28;20232;-61
2022/02/02 04:58:53;;;;;;;24.30;4.57;;;5.70;99.90;;;;;;5047956;28;20234;-61
2022/02/02 05:07:01;;;;;;;24.97;4.23;;;5.70;99.90;;;;;;5012847;28;20721;-61
2022/02/02 05:09:40;;;;;;;21.37;4.60;;;5.70;99.90;;;;;;5051205;28;20235;-61
2022/02/02 05:13:00;;;;;;;16.00;4.37;;;5.70;99.90;;;;;;5052321;28;20504;-61
2022/02/02 05:18:13;;;;;;;20.60;3.20;;;5.70;99.90;;;;;;5052143;28;20469;-61
2022/02/02 05:51:12;;;;;;;19.50;3.60;;;5.60;99.90;;;;;;5039814;28;20483;-61
2022/02/02 05:53:41;;;;;;;14.60;2.40;;;5.60;99.90;;;;;;5053877;28;20473;-62
2022/02/02 05:56:09;;;;;;;17.03;3.20;;;5.50;99.90;;;;;;5071631;28;20483;-62
2022/02/02 05:58:38;;;;;;;21.23;3.37;;;5.50;99.90;;;;;;5055727;28;20565;-61
2022/02/02 06:01:08;;;;;;;17.97;3.13;;;5.60;99.90;;;;;;5051581;28;20875;-61
2022/02/02 06:03:43;;;;;;;19.07;3.87;;;5.50;99.90;;;;;;5050896;28;21051;-61
2022/02/02 06:06:13;;;;;;;26.57;3.57;;;5.50;99.90;;;;;;5051241;28;20493;-61
2022/02/02 06:08:43;;;;;;;22.30;2.77;;;5.60;99.90;;;;;;5050202;28;20972;-61
2022/02/02 06:11:14;;;;;;;11.97;3.37;;;5.60;99.90;;;;;;5051223;28;20485;-61
2022/02/02 06:13:44;;;;;;;14.50;3.13;;;5.70;99.90;;;;;;5039634;28;20659;-61
2022/02/02 06:16:14;;;;;;;18.20;3.80;;;5.70;99.90;;;;;;5031306;28;20549;-61
2022/02/02 06:18:44;;;;;;;20.50;3.40;;;5.70;99.90;;;;;;5030953;28;20460;-62
2022/02/02 06:21:18;;;;;;;16.30;3.10;;;5.70;99.90;;;;;;5045650;28;20469;-61
2022/02/02 06:23:57;;;;;;;17.53;3.23;;;5.70;99.90;;;;;;5029670;28;20251;-61
2022/02/02 06:26:28;;;;;;;13.40;2.90;;;5.70;99.90;;;;;;5032713;28;20545;-61
2022/02/02 06:29:02;;;;;;;14.97;2.77;;;5.60;99.90;;;;;;5042422;28;20497;-61
2022/02/02 06:31:35;;;;;;;19.07;2.67;;;5.60;99.90;;;;;;5043154;28;20489;-61
2022/02/02 06:34:06;;;;;;;15.37;2.17;;;5.60;99.90;;;;;;5042895;28;20496;-60
2022/02/02 06:36:38;;;;;;;14.17;2.10;;;5.60;99.90;;;;;;5044276;28;20584;-62
2022/02/02 06:39:08;;;;;;;14.03;2.37;;;5.50;99.90;;;;;;5043857;28;20482;-62
2022/02/02 06:41:36;;;;;;;10.17;1.80;;;5.50;99.90;;;;;;5041427;28;20482;-62
2022/02/02 06:44:05;;;;;;;13.17;2.07;;;5.50;99.90;;;;;;5043215;28;20490;-61
2022/02/02 06:46:38;;;;;;;13.80;2.60;;;5.50;99.90;;;;;;5042285;28;20489;-61
2022/02/02 06:49:06;;;;;;;6.53;1.33;;;5.50;99.90;;;;;;5043013;28;20485;-62
2022/02/02 06:51:45;;;;;;;15.07;1.60;;;5.50;99.90;;;;;;5041967;28;21037;-60
2022/02/02 06:54:18;;;;;;;7.77;1.77;;;5.50;99.90;;;;;;5042970;28;21008;-62
2022/02/02 06:56:55;;;;;;;7.63;1.90;;;5.40;99.90;;;;;;5042430;28;20478;-61
2022/02/02 06:59:35;;;;;;;14.97;2.00;;;5.40;99.90;;;;;;5042779;28;20896;-62
2022/02/02 07:02:28;;;;;;;9.73;2.20;;;5.40;99.90;;;;;;5045027;28;20598;-62
2022/02/02 07:05:25;;;;;;;10.67;2.07;;;5.30;99.90;;;;;;5044152;28;20521;-62
2022/02/02 07:08:21;;;;;;;10.37;2.00;;;5.30;99.90;;;;;;5044666;28;21471;-62
2022/02/02 07:11:19;;;;;;;11.80;2.63;;;5.30;99.90;;;;;;5045193;28;20501;-62
2022/02/02 07:14:05;;;;;;;9.40;1.80;;;5.20;99.90;;;;;;5045515;28;20997;-61
2022/02/02 07:16:46;;;;;;;17.43;2.97;;;5.20;99.90;;;;;;5044596;28;20830;-62
2022/02/02 07:19:27;;;;;;;16.80;3.27;;;5.20;99.90;;;;;;5045043;28;20561;-62
2022/02/02 07:22:17;;;;;;;14.13;2.17;;;5.20;99.90;;;;;;5044728;28;21806;-62
2022/02/02 07:27:45;;;;;;;12.03;2.77;;;5.20;99.90;;;;;;5044220;28;20981;-62
2022/02/02 07:30:42;;;;;;;16.47;2.80;;;5.20;99.90;;;;;;5044337;28;20840;-61
2022/02/02 07:33:18;;;;;;;17.37;3.27;;;5.20;99.90;;;;;;5044695;28;20469;-62
2022/02/02 07:35:57;;;;;;;12.40;2.83;;;5.20;99.90;;;;;;5044161;28;20911;-62
2022/02/02 07:38:28;;;;;;;18.87;3.67;;;5.30;99.90;;;;;;5044845;28;20270;-61
2022/02/02 07:41:05;;;;;;;19.73;3.00;;;5.30;99.90;;;;;;5045091;28;20488;-62
2022/02/02 07:43:40;;;;;;;14.33;3.53;;;5.30;99.90;;;;;;5044696;28;20512;-61
2022/02/02 07:46:10;;;;;;;13.43;3.07;;;5.40;99.90;;;;;;5044047;28;20849;-62
2022/02/02 07:48:40;;;;;;;13.53;3.07;;;5.40;99.90;;;;;;5044325;28;20856;-62
2022/02/02 07:51:10;;;;;;;16.67;2.80;;;5.40;99.90;;;;;;5047406;28;20486;-62
2022/02/02 07:53:42;;;;;;;16.47;2.77;;;5.40;99.90;;;;;;5048867;28;20528;-62
2022/02/02 07:56:34;;;;;;;12.00;2.70;;;5.40;99.90;;;;;;5047430;28;20239;-62
2022/02/02 07:59:16;;;;;;;13.80;2.67;;;5.40;99.90;;;;;;5048162;28;20487;-61
2022/02/02 08:01:46;;;;;;;16.83;2.57;;;5.40;99.90;;;;;;5046575;28;20602;-62
2022/02/02 08:04:16;;;;;;;19.17;2.63;;;5.40;99.90;;;;;;5048029;28;20820;-62
2022/02/02 08:06:52;;;;;;;15.33;2.40;;;5.40;99.90;;;;;;5047165;28;20840;-61
2022/02/02 08:09:31;;;;;;;14.00;2.47;;;5.50;99.90;;;;;;5046948;28;20810;-62
2022/02/02 08:12:05;;;;;;;14.47;2.90;;;5.50;99.90;;;;;;5047197;28;20469;-62
2022/02/02 08:14:36;;;;;;;15.13;2.83;;;5.50;99.90;;;;;;5047345;28;20481;-62
2022/02/02 08:17:06;;;;;;;19.70;3.90;;;5.50;99.90;;;;;;5048511;28;20577;-62
2022/02/02 08:19:38;;;;;;;19.30;3.00;;;5.50;99.90;;;;;;5048377;28;20574;-62
2022/02/02 08:22:08;;;;;;;15.37;3.47;;;5.50;99.90;;;;;;5046834;28;20607;-59
2022/02/02 08:24:38;;;;;;;18.60;3.00;;;5.50;99.90;;;;;;5045727;28;21224;-59
2022/02/02 08:27:10;;;;;;;12.43;2.30;;;5.50;99.90;;;;;;5047659;28;20486;-59
2022/02/02 08:29:41;;;;;;;12.53;2.83;;;5.50;99.90;;;;;;5046291;28;21027;-60
2022/02/02 08:32:11;;;;;;;17.07;2.37;;;5.50;99.90;;;;;;5046584;28;20477;-60
2022/02/02 08:34:47;;;;;;;25.93;3.53;;;5.50;99.90;;;;;;5046942;28;21006;-60
2022/02/02 08:37:17;;;;;;;13.53;2.50;;;5.50;99.90;;;;;;5047256;28;20537;-59
2022/02/02 08:39:59;;;;;;;16.50;2.87;;;5.50;99.90;;;;;;5047425;28;20465;-58
2022/02/02 08:42:32;;;;;;;17.50;3.13;;;5.50;99.90;;;;;;5047481;28;20471;-59
2022/02/02 08:45:16;;;;;;;17.23;2.63;;;5.60;99.90;;;;;;5045130;28;20488;-59
2022/02/02 08:47:53;;;;;;;15.10;2.30;;;5.70;99.90;;;;;;5045462;28;20474;-59
2022/02/02 08:50:30;;;;;;;18.23;3.30;;;5.70;99.90;;;;;;5046791;28;20481;-59
2022/02/02 08:53:09;;;;;;;22.37;3.30;;;5.80;99.90;;;;;;5047470;28;20532;-59
2022/02/02 08:58:38;;;;;;;18.33;3.33;;;5.90;99.90;;;;;;5024699;28;20537;-59
2022/02/02 09:01:10;;;;;;;16.37;2.80;;;5.90;99.90;;;;;;5042330;28;21133;-59
2022/02/02 09:06:24;;;;;;;14.43;2.47;;;5.90;99.90;;;;;;5051922;28;20235;-59
2022/02/02 09:09:04;;;;;;;12.97;2.90;;;6.10;99.90;;;;;;5050260;28;20469;-59
2022/02/02 09:20:09;;;;;;;16.53;3.10;;;6.10;99.90;;;;;;5052095;28;20259;-59
2022/02/02 09:25:27;;;;;;;13.57;2.40;;;6.30;99.90;;;;;;5051984;28;20235;-59
2022/02/02 09:36:13;;;;;;;12.50;2.17;;;6.40;99.90;;;;;;5047234;28;20240;-59
2022/02/02 09:38:42;;;;;;;13.93;2.50;;;6.50;99.90;;;;;;5051642;28;20282;-59
2022/02/02 09:41:28;;;;;;;14.10;2.40;;;6.50;99.90;;;;;;5051924;28;20235;-59
2022/02/02 09:43:59;;;;;;;15.03;2.80;;;6.60;99.90;;;;;;5051360;28;20470;-59
2022/02/02 09:46:34;;;;;;;11.60;2.57;;;6.50;99.90;;;;;;5050045;28;20247;-58
2022/02/02 09:49:06;;;;;;;15.03;2.20;;;6.50;99.90;;;;;;5050493;28;20292;-59
2022/02/02 09:51:39;;;;;;;16.53;2.60;;;6.50;99.90;;;;;;5051233;28;20256;-59
2022/02/02 09:54:13;;;;;;;17.23;2.27;;;6.60;99.90;;;;;;5051139;28;20280;-59
2022/02/02 10:00:20;;;;;;;15.33;2.10;;;6.60;99.90;;;;;;5042930;28;20250;-59
2022/02/02 10:03:22;;;;;;;15.33;2.50;;;6.50;99.90;;;;;;5045136;28;20489;-59
2022/02/02 10:06:01;;;;;;;15.50;2.57;;;6.50;99.90;;;;;;5045822;28;20249;-59
2022/02/02 10:14:36;;;;;;;13.17;2.70;;;6.50;99.90;;;;;;5023688;28;20279;-59
2022/02/02 10:17:10;;;;;;;14.33;2.40;;;6.50;99.90;;;;;;5038232;28;20256;-59
2022/02/02 10:19:40;;;;;;;12.77;2.80;;;6.60;99.90;;;;;;5044916;28;20236;-58
2022/02/02 10:22:25;;;;;;;14.60;2.43;;;6.60;99.90;;;;;;5045810;28;20968;-59
2022/02/02 10:24:59;;;;;;;9.40;2.37;;;6.50;99.90;;;;;;5045988;28;20485;-59
2022/02/02 10:27:32;;;;;;;18.27;3.00;;;6.50;99.90;;;;;;5044096;28;20334;-58
2022/02/02 10:30:16;;;;;;;15.13;2.43;;;6.60;99.90;;;;;;5045457;28;20247;-58
2022/02/02 10:32:45;;;;;;;11.90;2.20;;;6.70;99.90;;;;;;5045461;28;20317;-58
2022/02/02 10:35:33;;;;;;;10.73;1.97;;;6.70;99.90;;;;;;5045952;28;20243;-59
2022/02/02 10:38:24;;;;;;;12.77;2.30;;;6.80;99.90;;;;;;5045756;28;21135;-59
2022/02/02 10:40:58;;;;;;;13.10;2.33;;;6.80;99.90;;;;;;5044514;28;20478;-59
2022/02/02 10:43:32;;;;;;;13.07;2.33;;;6.90;99.90;;;;;;5045509;28;20239;-59
2022/02/02 10:46:12;;;;;;;11.00;1.80;;;6.90;99.90;;;;;;5045551;28;20250;-59
2022/02/02 10:48:44;;;;;;;11.43;2.00;;;7.00;99.90;;;;;;5045447;28;20762;-58
2022/02/02 10:51:21;;;;;;;14.53;2.40;;;6.90;99.90;;;;;;5044599;28;20251;-58
2022/02/02 10:54:10;;;;;;;14.93;2.10;;;7.00;99.90;;;;;;5045305;28;20247;-58
2022/02/02 10:56:46;;;;;;;12.27;2.13;;;7.00;99.90;;;;;;5038144;28;20240;-59
2022/02/02 11:07:36;;;;;;;10.43;2.20;;;6.80;99.90;;;;;;5044736;28;20244;-59
2022/02/02 11:10:06;;;;;;;8.77;1.83;;;6.80;99.90;;;;;;5044403;28;20330;-59
2022/02/02 11:12:38;;;;;;;6.77;1.53;;;6.70;99.90;;;;;;5045285;28;20239;-59
2022/02/02 11:15:18;;;;;;;14.03;2.57;;;6.80;99.90;;;;;;5044333;28;20330;-59
2022/02/02 11:17:56;;;;;;;9.33;1.90;;;6.90;99.90;;;;;;5045599;28;20805;-59
2022/02/02 11:20:25;;;;;;;9.30;1.53;;;7.00;99.90;;;;;;5043834;28;20238;-58
2022/02/02 11:22:56;;;;;;;10.10;2.00;;;7.10;99.90;;;;;;5045478;28;20243;-59
2022/02/02 11:25:51;;;;;;;11.67;1.90;;;7.30;99.90;;;;;;5046670;28;20243;-59
2022/02/02 11:28:32;;;;;;;13.60;2.57;;;7.40;99.90;;;;;;5047695;28;20365;-59
2022/02/02 11:31:06;;;;;;;13.93;2.43;;;7.40;99.90;;;;;;5031263;28;20247;-58
2022/02/02 11:33:43;;;;;;;17.40;2.50;;;7.30;99.90;;;;;;5026959;28;20671;-59
2022/02/02 11:36:22;;;;;;;9.27;1.70;;;7.30;99.90;;;;;;5027139;28;20347;-59
2022/02/02 11:38:55;;;;;;;13.17;2.10;;;7.20;99.90;;;;;;5031957;28;20319;-58
2022/02/02 11:41:40;;;;;;;14.90;2.37;;;7.00;99.90;;;;;;5027737;28;20271;-59
2022/02/02 11:44:15;;;;;;;11.20;2.23;;;7.00;99.90;;;;;;5028870;28;20275;-59
2022/02/02 11:46:50;;;;;;;13.87;1.83;;;7.10;99.90;;;;;;5028880;28;20677;-59
2022/02/02 11:49:30;;;;;;;10.17;2.20;;;7.30;99.90;;;;;;5044571;28;20344;-60
2022/02/02 11:52:02;;;;;;;12.10;1.73;;;7.50;99.90;;;;;;5048889;28;20239;-58
2022/02/02 11:54:52;;;;;;;10.13;1.80;;;7.30;99.90;;;;;;5048733;28;20244;-59
2022/02/02 11:57:26;;;;;;;12.43;1.70;;;7.20;99.90;;;;;;5048134;28;20779;-59
2022/02/02 12:00:17;;;;;;;6.37;1.00;;;7.20;99.90;;;;;;5047918;28;20297;-59
2022/02/02 12:05:53;;;;;;;9.03;1.80;;;6.60;99.90;;;;;;5046126;28;20506;-59
2022/02/02 12:08:43;;;;;;;5.27;1.60;;;6.40;99.90;;;;;;5046852;28;20601;-59
2022/02/02 12:35:55;;;;;;;7.60;1.50;;;6.90;99.90;;;;;;5046935;28;20777;-59
2022/02/02 12:45:52;;;;;;;12.00;1.83;;;6.60;99.90;;;;;;5048037;28;20247;-59
2022/02/02 12:48:17;;;;;;;10.77;1.90;;;6.70;99.90;;;;;;5046886;28;20569;-58
2022/02/02 12:54:25;;;;;;;11.30;1.53;;;6.70;99.90;;;;;;5047403;28;20259;-58
2022/02/02 12:56:54;;;;;;;8.37;1.93;;;6.40;99.90;;;;;;5047038;28;20301;-58
2022/02/02 13:00:05;;;;;;;15.47;2.70;;;6.20;99.90;;;;;;5046413;28;20573;-59
2022/02/02 13:02:38;;;;;;;8.97;1.67;;;6.10;99.90;;;;;;5035365;28;20240;-59
2022/02/02 13:05:09;;;;;;;8.40;1.47;;;6.00;99.90;;;;;;5037961;28;20247;-59
2022/02/02 13:07:41;;;;;;;9.90;1.87;;;6.10;99.90;;;;;;5036712;28;20782;-59
2022/02/02 13:10:12;;;;;;;10.23;2.43;;;6.10;99.90;;;;;;5046290;28;20243;-59
2022/02/02 13:12:46;;;;;;;7.87;1.53;;;6.20;99.90;;;;;;5047030;28;20240;-59
2022/02/02 13:15:28;;;;;;;9.13;1.80;;;6.30;99.90;;;;;;5042808;28;20793;-58
2022/02/02 13:18:06;;;;;;;5.53;1.23;;;6.40;99.90;;;;;;5042488;28;21010;-58
2022/02/02 13:20:51;;;;;;;5.80;1.27;;;6.40;99.90;;;;;;5043958;28;21118;-57
2022/02/02 13:23:27;;;;;;;5.03;1.30;;;6.40;99.90;;;;;;5047236;28;20270;-59
2022/02/02 13:26:00;;;;;;;10.60;1.80;;;6.40;99.90;;;;;;5046851;28;20236;-59
2022/02/02 13:28:56;;;;;;;10.67;1.40;;;6.40;99.90;;;;;;5046056;28;20326;-59
2022/02/02 13:31:38;;;;;;;6.90;1.60;;;6.50;99.90;;;;;;5023772;28;20721;-59
2022/02/02 13:34:18;;;;;;;9.00;1.93;;;6.50;99.90;;;;;;5026854;28;20248;-59
2022/02/02 13:37:11;;;;;;;8.93;1.50;;;6.50;99.90;;;;;;5045847;28;20313;-59
2022/02/02 13:42:49;;;;;;;7.33;1.67;;;6.50;99.90;;;;;;4995570;28;20328;-59
2022/02/02 13:45:50;;;;;;;10.33;1.47;;;6.50;99.90;;;;;;5025545;28;20723;-58
2022/02/02 13:48:53;;;;;;;9.67;1.87;;;6.50;99.90;;;;;;5027523;28;20286;-59
2022/02/02 13:51:34;;;;;;;7.03;1.60;;;6.40;99.90;;;;;;5050611;28;21160;-58
2022/02/02 14:00:22;;;;;;;10.77;1.50;;;6.30;99.90;;;;;;5038824;28;20244;-61
2022/02/02 14:11:47;;;;;;;12.77;1.87;;;6.20;99.90;;;;;;5050220;28;20754;-59
2022/02/02 14:31:10;;;;;;;9.23;2.00;;;6.60;99.90;;;;;;5024492;28;20786;-59
2022/02/02 14:33:59;;;;;;;9.80;1.90;;;6.50;99.90;;;;;;5037846;28;20232;-59
2022/02/02 14:36:33;;;;;;;10.63;1.70;;;6.50;99.90;;;;;;5049219;28;20763;-59
2022/02/02 14:39:10;;;;;;;12.50;1.80;;;6.50;99.90;;;;;;5043887;28;20713;-59
2022/02/02 14:41:44;;;;;;;7.63;1.50;;;6.50;99.90;;;;;;5030701;28;20240;-59
2022/02/02 14:44:17;;;;;;;7.23;1.50;;;6.50;99.90;;;;;;5050363;28;20236;-59
2022/02/02 14:47:09;;;;;;;12.10;1.97;;;6.40;99.90;;;;;;5047459;28;20243;-59
2022/02/02 14:49:45;;;;;;;10.23;1.93;;;6.40;99.90;;;;;;5036039;28;20278;-59
2022/02/02 14:52:23;;;;;;;9.17;1.60;;;6.40;99.90;;;;;;5055610;28;20232;-59
2022/02/02 14:55:24;;;;;;;9.97;2.10;;;6.40;99.90;;;;;;5050413;28;20231;-59
2022/02/02 15:26:43;;;;;;;17.03;2.37;;;6.20;99.90;;;;;;5027797;28;20246;-57
2022/02/02 15:29:13;;;;;;;12.13;2.10;;;6.10;99.90;;;;;;5046926;28;20240;-58
2022/02/02 15:31:43;;;;;;;12.83;2.00;;;6.00;99.90;;;;;;5047115;28;20255;-57
2022/02/02 15:34:35;;;;;;;12.87;2.37;;;5.90;99.90;;;;;;5049247;28;20472;-59
2022/02/02 15:40:07;;;;;;;14.23;2.60;;;5.80;99.90;;;;;;5034641;28;20289;-58
2022/02/02 15:42:45;;;;;;;13.23;1.97;;;5.80;99.90;;;;;;5049555;28;20262;-58
2022/02/02 15:59:12;;;;;;;14.97;2.50;;;5.60;99.90;;;;;;5044835;28;20326;-58
2022/02/02 16:04:31;;;;;;;14.83;2.27;;;5.60;99.90;;;;;;5044280;28;20715;-57
2022/02/02 16:07:02;;;;;;;15.40;2.83;;;5.50;99.90;;;;;;5044644;28;20568;-58
2022/02/02 16:09:39;;;;;;;11.93;2.23;;;5.40;99.90;;;;;;5044805;28;20322;-59
2022/02/02 16:12:14;;;;;;;13.20;2.97;;;5.50;99.90;;;;;;5045735;28;20242;-58
2022/02/02 16:14:45;;;;;;;11.50;2.33;;;5.50;99.90;;;;;;5047097;28;20239;-59
2022/02/02 16:17:37;;;;;;;14.77;2.67;;;5.50;99.90;;;;;;5044688;28;20500;-58
2022/02/02 16:31:49;;;;;;;16.93;2.43;;;5.30;99.90;;;;;;5025728;28;20766;-57
2022/02/02 16:37:04;;;;;;;11.97;2.77;;;5.20;99.90;;;;;;5028802;28;20896;-58
2022/02/02 16:39:36;;;;;;;14.33;2.93;;;5.20;99.90;;;;;;5052938;28;20594;-59
2022/02/02 16:44:50;;;;;;;15.13;2.67;;;5.10;99.90;;;;;;5036122;28;20574;-57
2022/02/02 16:47:18;;;;;;;12.33;2.10;;;5.20;99.90;;;;;;5031497;28;20231;-58
2022/02/02 16:50:09;;;;;;;17.47;3.03;;;5.20;99.90;;;;;;5046766;28;20239;-58
2022/02/02 16:52:38;;;;;;;16.23;2.80;;;5.20;99.90;;;;;;5047293;28;20239;-59
2022/02/02 16:55:13;;;;;;;17.83;2.73;;;5.10;99.90;;;;;;5048976;28;20648;-58
2022/02/02 16:57:51;;;;;;;12.83;2.43;;;5.10;99.90;;;;;;5044784;28;20474;-58
2022/02/02 17:31:48;;;;;;;13.03;2.80;;;4.90;99.90;;;;;;5025776;28;20847;-57
2022/02/02 17:34:24;;;;;;;12.33;2.60;;;4.90;99.90;;;;;;5023302;28;20841;-58
2022/02/02 17:36:59;;;;;;;13.80;3.10;;;4.90;99.90;;;;;;5023859;28;20251;-58
2022/02/02 17:39:36;;;;;;;10.73;2.70;;;4.90;99.90;;;;;;5025928;28;20493;-59
2022/02/02 17:45:26;;;;;;;14.07;2.53;;;4.90;99.90;;;;;;4984826;28;20480;-59
2022/02/02 18:14:27;;;;;;;19.77;4.33;;;4.90;99.90;;;;;;5022489;28;20563;-57
2022/02/02 18:19:23;;;;;;;14.97;3.87;;;4.90;99.90;;;;;;5043086;28;20469;-59
2022/02/02 18:21:52;;;;;;;18.50;3.37;;;4.90;99.90;;;;;;5043033;28;20868;-57
2022/02/02 18:24:25;;;;;;;15.30;3.57;;;4.80;99.90;;;;;;5042258;28;20520;-58
2022/02/02 18:26:59;;;;;;;12.33;3.07;;;4.80;99.90;;;;;;5043247;28;20563;-59
2022/02/02 18:29:34;;;;;;;18.57;3.83;;;4.80;99.90;;;;;;5043247;28;20498;-58
2022/02/02 18:32:28;;;;;;;17.30;3.50;;;4.80;99.90;;;;;;5043143;28;20542;-59
2022/02/02 18:35:00;;;;;;;17.57;4.53;;;4.80;99.90;;;;;;5042343;28;20474;-59
2022/02/02 18:49:24;;;;;;;22.30;8.27;;;4.80;99.90;;;;;;5042949;28;25878;-59
2022/02/02 18:54:48;;;;;;;19.70;9.47;;;4.80;99.90;;;;;;5041986;28;20604;-59
2022/02/02 18:57:37;;;;;;;24.40;7.77;;;4.70;99.90;;;;;;5042539;28;20478;-58
2022/02/02 19:00:30;;;;;;;18.57;9.43;;;4.70;99.90;;;;;;5042739;28;21072;-58
2022/02/02 19:40:04;;;;;;;26.47;7.10;;;4.70;99.90;;;;;;4949600;28;20510;-61
2022/02/02 19:56:51;;;;;;;17.20;5.30;;;4.50;99.90;;;;;;5048219;28;20536;-61
2022/02/02 20:08:05;;;;;;;16.43;4.63;;;4.40;99.90;;;;;;5045631;28;20502;-61
2022/02/02 20:10:42;;;;;;;19.33;5.10;;;4.40;99.90;;;;;;5047417;28;20496;-61
2022/02/02 20:13:13;;;;;;;17.53;5.07;;;4.40;99.90;;;;;;5046824;28;20527;-62
2022/02/02 20:15:41;;;;;;;14.57;4.40;;;4.50;99.90;;;;;;5048598;28;20846;-61
2022/02/02 20:18:14;;;;;;;16.27;4.13;;;4.60;99.90;;;;;;5048322;28;20528;-61
2022/02/02 20:20:44;;;;;;;16.07;4.60;;;4.50;99.90;;;;;;5048264;28;20458;-61
2022/02/02 20:23:13;;;;;;;19.03;4.80;;;4.40;99.90;;;;;;5046742;28;20485;-61
2022/02/02 20:25:47;;;;;;;15.53;4.00;;;4.50;99.90;;;;;;5048043;28;20326;-62
2022/02/02 20:28:17;;;;;;;17.73;4.73;;;4.40;99.90;;;;;;5048021;28;20508;-61
2022/02/02 20:30:45;;;;;;;12.27;3.50;;;4.50;99.90;;;;;;5047943;28;20792;-61
2022/02/02 20:33:14;;;;;;;17.27;4.10;;;4.40;99.90;;;;;;5046320;28;20599;-62
2022/02/02 20:35:42;;;;;;;14.40;3.97;;;4.40;99.90;;;;;;5048193;28;20501;-62
2022/02/02 20:38:11;;;;;;;15.00;3.60;;;4.40;99.90;;;;;;5048299;28;20486;-62
2022/02/02 20:40:40;;;;;;;11.77;4.03;;;4.40;99.90;;;;;;5048196;28;20481;-61
2022/02/02 20:43:11;;;;;;;18.90;3.90;;;4.30;99.90;;;;;;5047131;28;20535;-61
2022/02/02 21:08:21;;;;;;;18.00;3.77;;;4.10;99.90;;;;;;5047187;28;21055;-61
2022/02/02 21:10:55;;;;;;;13.97;3.27;;;4.20;99.90;;;;;;5047298;28;20280;-61
2022/02/02 21:13:44;;;;;;;12.93;3.50;;;4.20;99.90;;;;;;5046686;28;20474;-61
2022/02/02 21:16:15;;;;;;;16.50;3.80;;;4.20;99.90;;;;;;5047223;28;20489;-61
2022/02/02 21:18:47;;;;;;;18.53;4.37;;;4.30;99.90;;;;;;5046974;28;20580;-60
2022/02/02 21:21:21;;;;;;;22.20;5.03;;;4.30;99.90;;;;;;5046804;28;20787;-61
2022/02/02 21:27:05;;;;;;;21.43;4.60;;;4.40;99.90;;;;;;5004484;28;20488;-61
2022/02/02 21:29:33;;;;;;;15.93;4.27;;;4.20;99.90;;;;;;5004569;28;21534;-62
2022/02/02 21:32:01;;;;;;;16.70;4.27;;;4.20;99.90;;;;;;5027860;28;21193;-59
2022/02/02 21:34:31;;;;;;;17.20;4.00;;;4.10;99.90;;;;;;5045725;28;20481;-60
2022/02/02 21:37:03;;;;;;;21.80;4.57;;;4.20;99.90;;;;;;5047178;28;21303;-59
2022/02/02 21:39:34;;;;;;;17.47;5.27;;;4.20;99.90;;;;;;5046917;28;20505;-59
2022/02/02 21:42:03;;;;;;;21.30;5.33;;;4.20;99.90;;;;;;5046637;28;20485;-59
2022/02/02 21:44:31;;;;;;;19.60;4.67;;;4.10;99.90;;;;;;5045084;28;20476;-59
2022/02/02 21:47:02;;;;;;;12.30;3.90;;;4.20;99.90;;;;;;5046501;28;20507;-61
2022/02/02 21:49:32;;;;;;;18.10;3.93;;;4.10;99.90;;;;;;5046420;28;20473;-62
2022/02/02 21:52:03;;;;;;;17.10;3.90;;;4.20;99.90;;;;;;5046608;28;20521;-62